Terminal Aerodrome Forecast
Issued by NWS

Home | Current Version | Previous Version | Text Only | Print | Product List | Glossary On
Versions: 1 2 3 4 5 6 7 8 9 10 11 12 13 14 15 16 17 18 19 20 21 22 23 24
000
FTUS43 KDTX 220227 AAA
TAFYIP
TAF AMD
KYIP 220227Z 2202/2224 07005KT P6SM SCT015 OVC040
      TEMPO 2203/2205 4SM SHRA BR OVC015
     FM220500 09005KT 6SM -SHRA BR OVC015
     FM220700 VRB03KT 2SM -SHRA BR OVC007
     FM221400 23005KT 4SM BR OVC015
     FM221700 28007KT P6SM BKN025 OVC040
     FM222300 33005KT P6SM BKN035=

USA.gov is the U.S. government's official web portal to all federal, state and local government web resources and services.